Terminal Aerodrome Forecast
Issued by NWS Topeka, KS

Home | Current Version | Previous Version | Graphics & Text | Print | Product List | Glossary On
Versions: 1 2 3 4 5 6 7 8 9 10 11 12 13
868
FTUS43 KTOP 250520
TAFTOP
TAF
KTOP 250520Z 2506/2606 16010KT P6SM BKN150 WS020/19045KT
      TEMPO 2508/2511 -SHRA
     FM251300 15011KT P6SM BKN090
     FM252200 22009KT P6SM OVC035
     FM260000 30008KT P6SM OVC025=

USA.gov is the U.S. government's official web portal to all federal, state and local government web resources and services.